createdAt,value
2023-04-18T00:00:30.177Z,21.38
2023-04-18T00:02:59.171Z,16.48
2023-04-18T00:05:27.784Z,19.27
2023-04-18T00:07:54.890Z,19.80
2023-04-18T00:10:22.033Z,17.08
2023-04-18T00:12:49.064Z,18.73
2023-04-18T00:15:16.095Z,19.58
2023-04-18T00:17:43.459Z,20.33
2023-04-18T00:20:11.191Z,20.10
2023-04-18T00:22:42.532Z,20.75
2023-04-18T00:25:11.008Z,20.80
2023-04-18T00:27:40.794Z,22.15
2023-04-18T00:30:08.911Z,19.95
2023-04-18T00:32:36.128Z,19.05
2023-04-18T00:35:04.084Z,17.95
2023-04-18T00:37:31.138Z,19.02
2023-04-18T00:39:58.212Z,23.35
2023-04-18T00:42:29.336Z,26.15
2023-04-18T00:44:56.567Z,19.25
2023-04-18T00:47:23.765Z,19.63
2023-04-18T00:49:50.913Z,21.88
2023-04-18T00:52:18.444Z,21.63
2023-04-18T00:54:45.645Z,19.70
2023-04-18T00:57:13.083Z,21.40
2023-04-18T00:59:40.223Z,20.08
2023-04-18T01:02:07.338Z,24.02
2023-04-18T01:04:34.547Z,26.25
2023-04-18T01:07:02.279Z,20.77
2023-04-18T01:09:29.372Z,22.20
2023-04-18T01:11:56.458Z,20.17
2023-04-18T01:14:24.057Z,21.33
2023-04-18T01:16:51.147Z,20.45
2023-04-18T01:19:18.297Z,21.25
2023-04-18T01:21:45.500Z,23.27
2023-04-18T01:24:16.375Z,26.10
2023-04-18T01:26:44.728Z,24.58
2023-04-18T01:29:11.961Z,24.02
2023-04-18T01:31:39.203Z,17.65
2023-04-18T01:34:06.492Z,22.88
2023-04-18T01:36:33.797Z,20.65
2023-04-18T01:39:01.064Z,24.55
2023-04-18T01:41:29.778Z,20.38
2023-04-18T01:43:56.922Z,23.08
2023-04-18T01:46:24.007Z,24.60
2023-04-18T01:48:51.079Z,23.30
2023-04-18T01:51:18.127Z,23.83
2023-04-18T01:53:45.181Z,28.38
2023-04-18T01:56:12.334Z,22.35
2023-04-18T01:58:39.450Z,26.92
2023-04-18T02:01:06.766Z,29.50
2023-04-18T02:03:34.100Z,26.48
2023-04-18T02:06:01.726Z,29.80
2023-04-18T02:08:30.735Z,25.85
2023-04-18T02:10:57.889Z,27.05
2023-04-18T02:13:25.056Z,26.52
2023-04-18T02:15:52.151Z,29.30
2023-04-18T02:18:19.206Z,30.65
2023-04-18T02:20:46.277Z,30.70
2023-04-18T02:23:13.350Z,29.33
2023-04-18T02:25:40.632Z,29.95
2023-04-18T02:28:07.695Z,29.23
2023-04-18T02:30:35.149Z,30.35
2023-04-18T02:33:02.294Z,32.67
2023-04-18T02:35:29.512Z,36.10
2023-04-18T02:37:56.603Z,32.53
2023-04-18T02:40:23.738Z,28.42
2023-04-18T02:42:50.897Z,34.10
2023-04-18T02:45:18.039Z,41.95
2023-04-18T02:47:54.751Z,33.60
2023-04-18T02:50:22.909Z,34.05
2023-04-18T02:52:49.963Z,32.40
2023-04-18T02:55:17.336Z,32.38
2023-04-18T02:57:44.552Z,32.22
2023-04-18T03:00:12.092Z,34.00
2023-04-18T03:02:39.229Z,31.52
2023-04-18T03:05:06.719Z,38.38
2023-04-18T03:07:33.882Z,35.05
2023-04-18T03:10:00.944Z,33.40
2023-04-18T03:12:28.016Z,32.30
2023-04-18T03:14:55.085Z,36.00
2023-04-18T03:17:22.216Z,33.00
2023-04-18T03:19:49.390Z,32.83
2023-04-18T03:22:16.607Z,31.42
2023-04-18T03:24:43.876Z,34.47
2023-04-18T03:27:11.453Z,34.35
2023-04-18T03:29:38.555Z,36.20
2023-04-18T03:32:05.954Z,35.90
2023-04-18T03:34:33.042Z,33.05
2023-04-18T03:37:00.276Z,34.42
2023-04-18T03:39:27.364Z,34.88
2023-04-18T03:41:54.474Z,34.42
2023-04-18T03:44:21.538Z,37.08
2023-04-18T03:46:48.728Z,38.83
2023-04-18T03:49:16.007Z,33.83
2023-04-18T03:51:43.854Z,34.63
2023-04-18T03:54:11.013Z,38.97
2023-04-18T03:56:38.113Z,30.23
2023-04-18T03:59:05.219Z,32.20
2023-04-18T04:01:32.270Z,31.40
2023-04-18T04:03:59.498Z,31.73
2023-04-18T04:06:27.315Z,29.30
2023-04-18T04:08:54.395Z,33.45
2023-04-18T04:11:21.853Z,30.52
2023-04-18T04:13:48.929Z,28.73
2023-04-18T04:16:16.048Z,27.15
2023-04-18T04:18:43.128Z,27.48
2023-04-18T04:21:10.179Z,26.33
2023-04-18T04:23:38.003Z,24.70
2023-04-18T04:26:05.135Z,26.20
2023-04-18T04:28:32.535Z,24.95
2023-04-18T04:30:59.958Z,25.88
2023-04-18T04:33:29.818Z,21.83
2023-04-18T04:35:56.995Z,24.02
2023-04-18T04:38:24.040Z,20.77
2023-04-18T04:40:51.225Z,21.92
2023-04-18T04:43:20.408Z,23.40
2023-04-18T04:45:52.511Z,17.95
2023-04-18T04:48:21.849Z,19.33
2023-04-18T04:50:55.840Z,22.17
2023-04-18T04:53:26.577Z,22.40
2023-04-18T04:55:53.735Z,17.33
2023-04-18T04:58:20.897Z,17.67
2023-04-18T05:00:48.079Z,15.13
2023-04-18T05:03:15.465Z,14.55
2023-04-18T05:05:42.583Z,14.50
2023-04-18T05:08:09.648Z,13.88
2023-04-18T05:10:37.132Z,14.07
2023-04-18T05:13:04.675Z,14.27
2023-04-18T05:15:32.308Z,16.13
2023-04-18T05:17:59.475Z,14.20
2023-04-18T05:20:26.547Z,13.40
2023-04-18T05:22:53.728Z,13.60
2023-04-18T05:25:20.927Z,12.40
2023-04-18T05:27:48.005Z,12.95
2023-04-18T05:30:15.205Z,10.68
2023-04-18T05:32:42.416Z,12.23
2023-04-18T05:35:09.565Z,12.18
2023-04-18T05:37:36.704Z,11.23
2023-04-18T05:40:04.995Z,14.35
2023-04-18T05:42:32.107Z,10.43
2023-04-18T05:44:59.153Z,9.63
2023-04-18T05:47:28.400Z,9.60
2023-04-18T05:49:55.963Z,10.32
2023-04-18T05:52:23.083Z,13.30
2023-04-18T05:54:50.842Z,8.50
2023-04-18T05:57:17.874Z,9.82
2023-04-18T05:59:44.938Z,9.45
2023-04-18T06:02:13.693Z,10.82
2023-04-18T06:04:44.919Z,10.60
2023-04-18T06:07:12.277Z,9.50
2023-04-18T06:09:39.349Z,8.50
2023-04-18T06:12:06.573Z,10.40
2023-04-18T06:14:33.726Z,10.57
2023-04-18T06:17:00.802Z,11.65
2023-04-18T06:19:27.941Z,11.27
2023-04-18T06:21:55.105Z,11.70
2023-04-18T06:24:22.978Z,13.30
2023-04-18T06:26:50.103Z,13.73
2023-04-18T06:29:18.224Z,12.93
2023-04-18T06:31:46.659Z,15.43
2023-04-18T06:34:14.094Z,13.25
2023-04-18T06:36:41.256Z,15.18
2023-04-18T06:39:08.467Z,16.08
2023-04-18T06:41:35.536Z,19.05
2023-04-18T06:44:04.058Z,16.83
2023-04-18T06:46:32.121Z,14.68
2023-04-18T06:48:59.330Z,15.73
2023-04-18T06:51:27.302Z,18.23
2023-04-18T06:53:54.440Z,16.08
2023-04-18T06:56:21.527Z,16.08
2023-04-18T06:58:48.908Z,15.48
2023-04-18T07:01:16.076Z,17.48
2023-04-18T07:03:43.279Z,17.58
2023-04-18T07:06:11.033Z,18.77
2023-04-18T07:08:38.231Z,21.65
2023-04-18T07:11:06.058Z,21.05
2023-04-18T07:13:33.141Z,20.73
2023-04-18T07:16:01.258Z,21.88
2023-04-18T07:18:37.450Z,19.45
2023-04-18T07:21:07.523Z,20.50
2023-04-18T07:23:35.098Z,21.00
2023-04-18T07:26:02.798Z,20.08
2023-04-18T07:28:30.160Z,23.05
2023-04-18T07:30:57.218Z,23.63
2023-04-18T07:33:24.601Z,19.85
2023-04-18T07:35:52.880Z,21.40
2023-04-18T07:38:20.050Z,21.13
2023-04-18T07:40:47.164Z,20.95
2023-04-18T07:43:14.233Z,22.25
2023-04-18T07:45:43.201Z,20.65
2023-04-18T07:48:11.297Z,18.42
2023-04-18T07:50:38.610Z,20.77
2023-04-18T07:53:06.153Z,16.67
2023-04-18T07:55:33.250Z,20.75
2023-04-18T07:58:00.357Z,21.45
2023-04-18T08:00:28.680Z,17.50
2023-04-18T08:02:56.539Z,16.88
2023-04-18T08:05:23.847Z,15.05
2023-04-18T08:07:51.132Z,15.25
2023-04-18T08:10:18.229Z,13.50
2023-04-18T08:12:45.513Z,11.27
2023-04-18T08:15:12.617Z,11.25
2023-04-18T08:17:39.729Z,9.30
2023-04-18T08:20:07.233Z,12.38
2023-04-18T08:22:34.546Z,10.32
2023-04-18T08:25:05.478Z,8.82
2023-04-18T08:27:33.055Z,9.45
2023-04-18T08:30:00.829Z,10.35
2023-04-18T08:32:27.945Z,8.63
2023-04-18T08:34:55.030Z,9.38
2023-04-18T08:37:22.107Z,9.52
2023-04-18T08:39:49.176Z,7.35
2023-04-18T08:42:19.165Z,10.98
2023-04-18T08:44:47.249Z,7.18
2023-04-18T08:47:14.622Z,7.93
2023-04-18T08:49:41.815Z,6.35
2023-04-18T08:52:12.375Z,8.30
2023-04-18T08:54:42.038Z,8.15
2023-04-18T08:57:13.672Z,7.03
2023-04-18T08:59:43.141Z,6.57
2023-04-18T09:02:11.640Z,6.65
2023-04-18T09:04:39.559Z,7.30
2023-04-18T09:07:07.545Z,6.05
2023-04-18T09:09:44.077Z,6.93
2023-04-18T09:12:14.144Z,5.28
2023-04-18T09:14:45.085Z,8.23
2023-04-18T09:17:13.311Z,7.32
2023-04-18T09:19:48.807Z,7.60
2023-04-18T09:22:16.251Z,6.03
2023-04-18T09:25:09.901Z,5.93
2023-04-18T09:27:37.480Z,4.13
2023-04-18T09:30:05.521Z,6.28
2023-04-18T09:32:33.212Z,5.53
2023-04-18T09:35:03.989Z,4.20
2023-04-18T09:37:31.832Z,5.00
2023-04-18T09:39:59.082Z,5.35
2023-04-18T09:42:28.678Z,7.35
2023-04-18T09:45:02.245Z,5.57
2023-04-18T09:47:29.446Z,4.88
2023-04-18T09:49:56.571Z,7.30
2023-04-18T09:52:25.577Z,5.97
2023-04-18T09:54:58.431Z,6.22
2023-04-18T09:57:27.610Z,6.13
2023-04-18T09:59:57.826Z,5.03
2023-04-18T10:02:24.949Z,5.90
2023-04-18T10:04:52.276Z,7.95
2023-04-18T10:07:19.400Z,5.97
2023-04-18T10:09:46.923Z,5.00
2023-04-18T10:12:14.042Z,7.82
2023-04-18T10:14:43.136Z,6.20
2023-04-18T10:17:11.754Z,6.97
2023-04-18T10:19:44.196Z,6.07
2023-04-18T10:22:11.604Z,5.55
2023-04-18T10:24:54.052Z,6.38
2023-04-18T10:27:39.637Z,5.25
2023-04-18T10:30:08.982Z,5.93
2023-04-18T10:32:36.412Z,6.10
2023-04-18T10:35:03.615Z,7.28
2023-04-18T10:37:32.087Z,8.63
2023-04-18T10:40:00.887Z,8.57
2023-04-18T10:42:46.239Z,6.13
2023-04-18T10:45:19.637Z,7.05
2023-04-18T10:47:46.980Z,7.63
2023-04-18T10:50:14.249Z,9.93
2023-04-18T10:52:41.674Z,7.18
2023-04-18T10:55:09.884Z,7.15
2023-04-18T10:57:46.627Z,6.78
2023-04-18T11:00:15.167Z,6.80
2023-04-18T11:02:48.553Z,8.25
2023-04-18T11:05:19.114Z,7.65
2023-04-18T11:07:46.495Z,6.57
2023-04-18T11:10:13.857Z,6.88
2023-04-18T11:12:41.252Z,9.68
2023-04-18T11:15:17.549Z,9.85
2023-04-18T11:17:44.808Z,7.50
2023-04-18T11:20:15.275Z,7.80
2023-04-18T11:22:53.090Z,7.00
2023-04-18T11:25:22.216Z,6.78
2023-04-18T11:27:51.558Z,10.50
2023-04-18T11:30:18.744Z,6.70
2023-04-18T11:32:45.920Z,6.70
2023-04-18T11:35:13.495Z,8.35
2023-04-18T11:37:40.882Z,8.45
2023-04-18T11:40:11.142Z,8.55
2023-04-18T11:45:09.472Z,8.63
2023-04-18T11:47:36.599Z,6.50
2023-04-18T11:50:04.739Z,7.20
2023-04-18T11:52:32.544Z,9.38
2023-04-18T11:55:19.519Z,7.30
2023-04-18T11:57:56.113Z,8.15
2023-04-18T12:00:37.152Z,7.25
2023-04-18T12:03:04.864Z,11.68
2023-04-18T12:05:32.941Z,8.95
2023-04-18T12:08:29.276Z,8.05
2023-04-18T12:10:56.401Z,8.40
2023-04-18T12:13:27.561Z,9.73
2023-04-18T12:15:54.779Z,11.52
2023-04-18T12:18:22.085Z,9.75
2023-04-18T12:20:54.125Z,11.15
2023-04-18T12:23:38.707Z,9.60
2023-04-18T12:26:06.978Z,10.82
2023-04-18T12:28:34.670Z,11.98
2023-04-18T12:31:02.068Z,12.25
2023-04-18T12:33:29.347Z,13.30
2023-04-18T12:35:56.627Z,13.85
2023-04-18T12:38:23.974Z,16.15
2023-04-18T12:40:51.332Z,13.13
2023-04-18T12:43:18.665Z,15.68
2023-04-18T12:45:48.727Z,15.70
2023-04-18T12:48:15.855Z,14.13
2023-04-18T12:50:42.936Z,14.98
2023-04-18T12:53:10.045Z,15.10
2023-04-18T12:55:37.580Z,15.57
2023-04-18T12:58:04.757Z,15.82
2023-04-18T13:00:32.525Z,13.93
2023-04-18T13:02:59.927Z,15.85
2023-04-18T13:05:29.938Z,14.60
2023-04-18T13:08:15.222Z,14.18
2023-04-18T13:10:43.303Z,17.05
2023-04-18T13:13:10.434Z,14.93
2023-04-18T13:15:37.528Z,16.33
2023-04-18T13:18:06.302Z,14.77
2023-04-18T13:20:34.013Z,16.70
2023-04-18T13:23:01.260Z,13.82
2023-04-18T13:25:28.317Z,16.63
2023-04-18T13:27:56.268Z,15.40
2023-04-18T13:30:23.336Z,15.98
2023-04-18T13:32:50.779Z,17.52
2023-04-18T13:35:17.887Z,13.30
2023-04-18T13:37:44.969Z,16.67
2023-04-18T13:40:12.372Z,13.63
2023-04-18T13:42:39.528Z,14.50
2023-04-18T13:45:07.240Z,15.10
2023-04-18T13:47:34.974Z,16.35
2023-04-18T13:50:02.231Z,11.77
2023-04-18T13:52:29.313Z,12.68
2023-04-18T13:54:56.400Z,15.82
2023-04-18T13:57:23.525Z,13.30
2023-04-18T13:59:50.620Z,15.32
2023-04-18T14:02:17.861Z,14.27
2023-04-18T14:04:45.196Z,12.43
2023-04-18T14:07:12.579Z,11.57
2023-04-18T14:09:39.675Z,12.15
2023-04-18T14:12:06.845Z,13.85
2023-04-18T14:14:33.958Z,12.70
2023-04-18T14:17:01.045Z,14.25
2023-04-18T14:19:28.132Z,11.00
2023-04-18T14:21:55.298Z,10.68
2023-04-18T14:24:22.436Z,11.55
2023-04-18T14:26:49.496Z,11.52
2023-04-18T14:29:16.882Z,11.43
2023-04-18T14:31:44.182Z,13.63
2023-04-18T14:34:11.297Z,10.20
2023-04-18T14:36:38.315Z,10.95
2023-04-18T14:39:05.500Z,10.57
2023-04-18T14:41:32.949Z,9.10
2023-04-18T14:44:00.168Z,9.43
2023-04-18T14:46:28.251Z,9.68
2023-04-18T14:48:55.553Z,11.18
2023-04-18T14:51:23.176Z,11.27
2023-04-18T14:56:16.226Z,9.75
2023-04-18T14:58:43.788Z,9.23
2023-04-18T15:01:10.871Z,12.40
2023-04-18T15:03:38.140Z,9.68
2023-04-18T15:06:05.515Z,9.68
2023-04-18T15:15:57.214Z,12.98
2023-04-18T15:20:39.491Z,9.23
2023-04-18T15:23:07.033Z,8.13
2023-04-18T15:25:35.116Z,11.73
2023-04-18T15:28:02.238Z,9.18
2023-04-18T15:30:29.393Z,9.70
2023-04-18T15:32:57.095Z,8.95
2023-04-18T15:35:24.301Z,10.18
2023-04-18T15:37:51.647Z,8.52
2023-04-18T15:40:18.768Z,9.00
2023-04-18T15:42:45.968Z,10.52
2023-04-18T15:45:13.209Z,9.63
2023-04-18T15:47:41.304Z,10.93
2023-04-18T15:50:09.087Z,7.88
2023-04-18T15:52:36.695Z,9.63
2023-04-18T15:55:04.879Z,7.63
2023-04-18T15:57:32.386Z,8.63
2023-04-18T15:59:59.754Z,9.82
2023-04-18T16:02:27.025Z,8.25
2023-04-18T16:04:54.226Z,7.45
2023-04-18T16:07:22.021Z,8.10
2023-04-18T16:09:49.036Z,8.57
2023-04-18T16:12:16.297Z,9.40
2023-04-18T16:14:43.414Z,10.55
2023-04-18T16:17:10.457Z,10.13
2023-04-18T16:19:38.298Z,11.95
2023-04-18T16:22:07.029Z,10.20
2023-04-18T16:24:34.160Z,10.35
2023-04-18T16:27:01.364Z,12.18
2023-04-18T16:29:28.464Z,9.25
2023-04-18T16:31:55.630Z,13.35
2023-04-18T16:34:22.747Z,11.52
2023-04-18T16:36:51.141Z,8.93
2023-04-18T16:39:19.201Z,10.60
2023-04-18T16:41:46.454Z,11.82
2023-04-18T16:44:13.782Z,9.85
2023-04-18T16:46:41.120Z,11.00
2023-04-18T16:49:08.273Z,10.55
2023-04-18T16:51:37.151Z,12.65
2023-04-18T16:54:04.668Z,11.90
2023-04-18T16:56:31.742Z,12.60
2023-04-18T16:58:59.062Z,10.27
2023-04-18T17:01:26.167Z,11.82
2023-04-18T17:03:53.840Z,11.23
2023-04-18T17:06:22.648Z,11.38
2023-04-18T17:08:49.835Z,11.52
2023-04-18T17:11:16.948Z,11.52
2023-04-18T17:13:44.073Z,9.23
2023-04-18T17:16:11.265Z,11.07
2023-04-18T17:18:38.366Z,11.18
2023-04-18T17:21:05.419Z,10.40
2023-04-18T17:23:33.180Z,10.65
2023-04-18T17:26:00.445Z,15.23
2023-04-18T17:28:27.607Z,10.95
2023-04-18T17:30:57.276Z,13.27
2023-04-18T17:33:24.362Z,11.73
2023-04-18T17:35:51.863Z,13.07
2023-04-18T17:38:18.946Z,25.65
2023-04-18T17:40:46.001Z,16.55
2023-04-18T17:43:13.154Z,17.40
2023-04-18T17:45:40.447Z,12.35
2023-04-18T17:48:07.660Z,16.63
2023-04-18T17:50:36.917Z,16.95
2023-04-18T17:53:04.162Z,13.80
2023-04-18T17:55:31.269Z,15.25
2023-04-18T17:57:58.290Z,13.02
2023-04-18T18:00:25.650Z,14.65
2023-04-18T18:02:52.906Z,13.18
2023-04-18T18:05:20.151Z,12.20
2023-04-18T18:07:47.741Z,14.20
2023-04-18T18:10:18.998Z,12.73
2023-04-18T18:12:46.265Z,12.60
2023-04-18T18:15:13.434Z,14.50
2023-04-18T18:17:40.594Z,11.77
2023-04-18T18:20:09.761Z,15.43
2023-04-18T18:22:37.193Z,16.40
2023-04-18T18:25:05.393Z,13.35
2023-04-18T18:27:32.438Z,16.85
2023-04-18T18:29:59.538Z,13.45
2023-04-18T18:32:26.979Z,14.35
2023-04-18T18:34:54.375Z,12.90
2023-04-18T18:37:23.222Z,13.55
2023-04-18T18:39:50.359Z,14.20
2023-04-18T18:42:17.478Z,15.30
2023-04-18T18:44:44.515Z,14.48
2023-04-18T18:47:11.588Z,17.13
2023-04-18T18:49:38.654Z,14.65
2023-04-18T18:52:05.713Z,13.20
2023-04-18T18:54:32.860Z,12.45
2023-04-18T18:57:02.581Z,15.05
2023-04-18T18:59:30.483Z,18.10
2023-04-18T19:01:57.730Z,17.38
2023-04-18T19:04:24.951Z,17.75
2023-04-18T19:06:53.406Z,14.57
2023-04-18T19:09:20.440Z,17.88
2023-04-18T19:11:47.504Z,13.05
2023-04-18T19:14:14.532Z,13.25
2023-04-18T19:16:41.740Z,14.70
2023-04-18T19:19:08.968Z,11.52
2023-04-18T19:21:36.043Z,12.45
2023-04-18T19:24:03.095Z,12.07
2023-04-18T19:26:30.128Z,12.73
2023-04-18T19:28:57.304Z,15.73
2023-04-18T19:31:24.442Z,13.38
2023-04-18T19:33:51.505Z,13.15
2023-04-18T19:36:19.026Z,15.48
2023-04-18T19:38:46.182Z,13.13
2023-04-18T19:41:13.226Z,12.20
2023-04-18T19:43:40.692Z,11.65
2023-04-18T19:46:07.821Z,13.45
2023-04-18T19:48:34.949Z,14.35
2023-04-18T19:51:03.820Z,16.20
2023-04-18T19:53:31.087Z,14.13
2023-04-18T19:55:58.158Z,15.90
2023-04-18T19:58:39.537Z,15.30
2023-04-18T20:01:07.500Z,15.52
2023-04-18T20:03:34.964Z,15.27
2023-04-18T20:06:02.433Z,14.25
2023-04-18T20:08:29.646Z,13.07
2023-04-18T20:10:56.671Z,13.73
2023-04-18T20:13:23.746Z,13.80
2023-04-18T20:15:50.782Z,13.20
2023-04-18T20:18:17.950Z,12.68
2023-04-18T20:20:45.030Z,12.68
2023-04-18T20:23:14.312Z,13.00
2023-04-18T20:25:41.526Z,11.45
2023-04-18T20:28:08.702Z,11.75
2023-04-18T20:30:36.829Z,11.13
2023-04-18T20:33:04.015Z,12.38
2023-04-18T20:35:31.535Z,10.63
2023-04-18T20:38:00.256Z,11.32
2023-04-18T20:40:28.167Z,10.80
2023-04-18T20:42:57.813Z,11.20
2023-04-18T20:45:25.593Z,10.43
2023-04-18T20:47:52.704Z,10.13
2023-04-18T20:50:20.620Z,11.50
2023-04-18T20:52:47.879Z,10.95
2023-04-18T20:55:16.722Z,10.07
2023-04-18T20:57:43.884Z,10.60
2023-04-18T21:00:11.226Z,9.57
2023-04-18T21:02:38.409Z,9.30
2023-04-18T21:05:05.821Z,8.43
2023-04-18T21:07:32.872Z,9.38
2023-04-18T21:09:59.913Z,10.50
2023-04-18T21:12:27.543Z,10.40
2023-04-18T21:14:54.631Z,9.48
2023-04-18T21:17:21.852Z,9.45
2023-04-18T21:19:49.131Z,9.88
2023-04-18T21:22:16.299Z,10.90
2023-04-18T21:24:43.606Z,9.15
2023-04-18T21:27:10.694Z,9.40
2023-04-18T21:29:37.713Z,11.30
2023-04-18T21:32:04.842Z,11.70
2023-04-18T21:34:31.876Z,9.35
2023-04-18T21:36:59.482Z,11.68
2023-04-18T21:39:27.615Z,10.45
2023-04-18T21:41:54.629Z,11.32
2023-04-18T21:44:21.694Z,10.15
2023-04-18T21:46:48.793Z,10.75
2023-04-18T21:49:16.049Z,12.07
2023-04-18T21:51:43.332Z,10.27
2023-04-18T21:54:10.433Z,9.05
2023-04-18T21:56:37.536Z,9.25
2023-04-18T21:59:04.631Z,9.77
2023-04-18T22:01:34.214Z,10.80
2023-04-18T22:04:01.963Z,11.90
2023-04-18T22:06:29.753Z,10.82
2023-04-18T22:08:58.192Z,10.85
2023-04-18T22:11:25.656Z,12.18
2023-04-18T22:13:54.218Z,11.30
2023-04-18T22:16:24.843Z,10.60
2023-04-18T22:18:52.039Z,12.27
2023-04-18T22:21:19.144Z,13.27
2023-04-18T22:23:46.290Z,12.02
2023-04-18T22:26:13.433Z,13.05
2023-04-18T22:28:40.547Z,12.82
2023-04-18T22:31:07.664Z,14.52
2023-04-18T22:33:34.874Z,14.48
2023-04-18T22:36:01.933Z,12.52
2023-04-18T22:38:29.018Z,12.45
2023-04-18T22:40:56.040Z,14.90
2023-04-18T22:43:24.259Z,13.93
2023-04-18T22:45:51.533Z,14.32
2023-04-18T22:48:18.911Z,13.45
2023-04-18T22:50:46.181Z,12.52
2023-04-18T22:53:14.362Z,13.50
2023-04-18T22:55:41.675Z,11.82
2023-04-18T22:58:08.872Z,12.68
2023-04-18T23:00:36.068Z,15.32
2023-04-18T23:03:03.254Z,15.50
2023-04-18T23:05:30.551Z,16.27
2023-04-18T23:08:00.090Z,14.68
2023-04-18T23:10:27.501Z,14.75
2023-04-18T23:12:54.679Z,16.58
2023-04-18T23:15:22.799Z,17.20
2023-04-18T23:17:51.886Z,17.98
2023-04-18T23:20:19.276Z,18.75
2023-04-18T23:22:47.492Z,16.55
2023-04-18T23:25:14.541Z,15.82
2023-04-18T23:27:41.670Z,18.05
2023-04-18T23:30:08.947Z,18.77
2023-04-18T23:32:36.025Z,20.27
2023-04-18T23:35:04.212Z,21.63
2023-04-18T23:37:31.573Z,16.77
2023-04-18T23:39:59.487Z,17.52
2023-04-18T23:42:26.607Z,20.27
2023-04-18T23:44:54.514Z,18.25
2023-04-18T23:47:21.933Z,20.48
2023-04-18T23:49:49.104Z,19.48
2023-04-18T23:52:16.202Z,18.80
2023-04-18T23:54:43.363Z,22.17
2023-04-18T23:57:10.438Z,20.30
2023-04-18T23:59:37.516Z,19.30
